Time;durP1;ratioP1;P1;durP2;ratioP2;P2;SDS_P1;SDS_P2;PMS_P1;PMS_P2;Temp;Humidity;BMP_temperature;BMP_pressure;BME280_temperature;BME280_humidity;BME280_pressure;Samples;Min_cycle;Max_cycle;Signal;HPM_P1;HPM_P2
2023/08/07 00:01:52;;;;;;;;;2.00;2.00;;;;;;;;5042557;28;8810;-87
2023/08/07 00:04:19;;;;;;;;;1.50;1.50;;;;;;;;5038342;28;8900;-84
2023/08/07 00:06:46;;;;;;;;;2.25;2.25;;;;;;;;5037017;28;8868;-87
2023/08/07 00:09:13;;;;;;;;;2.50;1.00;;;;;;;;5049160;28;8863;-86
2023/08/07 00:11:40;;;;;;;;;1.25;1.25;;;;;;;;5049574;28;8840;-88
2023/08/07 00:14:08;;;;;;;;;1.00;1.00;;;;;;;;5049776;28;8855;-89
2023/08/07 00:16:35;;;;;;;;;3.00;1.00;;;;;;;;5053081;28;8864;-82
2023/08/07 00:19:04;;;;;;;;;1.00;1.00;;;;;;;;5052818;28;9618;-89
2023/08/07 00:21:31;;;;;;;;;2.00;1.00;;;;;;;;5052921;28;8826;-89
2023/08/07 00:23:58;;;;;;;;;2.00;2.00;;;;;;;;5058061;28;8864;-81
2023/08/07 00:26:25;;;;;;;;;3.00;1.00;;;;;;;;5076461;28;8859;-85
2023/08/07 00:28:53;;;;;;;;;1.00;1.00;;;;;;;;5076370;28;8870;-86
2023/08/07 00:31:20;;;;;;;;;0.50;0.50;;;;;;;;5049574;28;8834;-87
2023/08/07 00:33:51;;;;;;;;;1.25;1.25;;;;;;;;5041084;28;8980;-86
2023/08/07 00:36:20;;;;;;;;;1.00;1.00;;;;;;;;5031744;28;8977;-86
2023/08/07 00:38:47;;;;;;;;;1.75;1.75;;;;;;;;5042350;28;8866;-87
2023/08/07 00:41:14;;;;;;;;;3.00;1.00;;;;;;;;5043372;28;8854;-81
2023/08/07 00:43:41;;;;;;;;;1.00;1.00;;;;;;;;5031503;28;8842;-86
2023/08/07 00:46:09;;;;;;;;;1.00;1.00;;;;;;;;5036373;28;8844;-86
2023/08/07 00:48:37;;;;;;;;;1.00;1.00;;;;;;;;5038137;28;8899;-83
2023/08/07 00:51:07;;;;;;;;;1.75;1.75;;;;;;;;5049027;28;8871;-86
2023/08/07 00:53:38;;;;;;;;;2.75;2.00;;;;;;;;5048853;28;8851;-82
2023/08/07 00:56:05;;;;;;;;;1.00;1.00;;;;;;;;5039310;28;9527;-84
2023/08/07 00:58:33;;;;;;;;;1.00;1.00;;;;;;;;5049823;28;9447;-82
2023/08/07 01:01:00;;;;;;;;;1.00;1.00;;;;;;;;5049603;28;8776;-82
2023/08/07 01:03:27;;;;;;;;;1.25;1.25;;;;;;;;5049641;28;9011;-87
2023/08/07 01:05:55;;;;;;;;;1.00;1.00;;;;;;;;5043297;28;8864;-86
2023/08/07 01:08:23;;;;;;;;;1.50;1.00;;;;;;;;5032144;28;8955;-87
2023/08/07 01:11:09;;;;;;;;;1.00;1.00;;;;;;;;5049915;28;8945;-87
2023/08/07 01:13:55;;;;;;;;;2.00;2.00;;;;;;;;5037534;28;8868;-87
2023/08/07 01:16:27;;;;;;;;;1.00;1.00;;;;;;;;5029924;28;8880;-84
2023/08/07 01:18:55;;;;;;;;;3.00;1.50;;;;;;;;5034060;28;8857;-87
2023/08/07 01:21:23;;;;;;;;;1.75;1.75;;;;;;;;5035294;28;8876;-86
2023/08/07 01:23:51;;;;;;;;;2.00;0.50;;;;;;;;5033462;28;8863;-86
2023/08/07 01:26:21;;;;;;;;;3.50;1.25;;;;;;;;5032747;28;8961;-86
2023/08/07 01:28:54;;;;;;;;;1.00;1.00;;;;;;;;5034675;28;8978;-86
2023/08/07 01:31:24;;;;;;;;;1.75;1.75;;;;;;;;5030395;28;8891;-85
2023/08/07 01:33:58;;;;;;;;;3.00;1.25;;;;;;;;5030552;28;8840;-86
2023/08/07 01:36:27;;;;;;;;;2.00;2.00;;;;;;;;5034957;28;8862;-86
2023/08/07 01:38:58;;;;;;;;;1.00;1.00;;;;;;;;5037853;28;8857;-86
2023/08/07 01:41:25;;;;;;;;;2.00;2.00;;;;;;;;5030326;28;8979;-85
2023/08/07 01:43:52;;;;;;;;;1.00;1.00;;;;;;;;5030341;28;8852;-87
2023/08/07 01:46:20;;;;;;;;;2.00;2.00;;;;;;;;5030312;28;8963;-87
2023/08/07 01:48:47;;;;;;;;;1.00;1.00;;;;;;;;5030219;28;8879;-85
2023/08/07 01:51:14;;;;;;;;;2.00;2.00;;;;;;;;5024046;28;8928;-86
2023/08/07 01:53:41;;;;;;;;;1.00;1.00;;;;;;;;5024258;28;8880;-87
2023/08/07 01:56:11;;;;;;;;;1.50;1.50;;;;;;;;5028613;28;8864;-88
2023/08/07 01:58:39;;;;;;;;;3.00;2.00;;;;;;;;5029416;28;8881;-87
2023/08/07 02:01:06;;;;;;;;;1.00;1.00;;;;;;;;5017735;28;8797;-87
2023/08/07 02:03:33;;;;;;;;;1.25;1.25;;;;;;;;5030152;28;8876;-88
2023/08/07 02:06:01;;;;;;;;;2.00;1.25;;;;;;;;5030052;28;8875;-85
2023/08/07 02:08:29;;;;;;;;;1.25;1.25;;;;;;;;5029697;28;9011;-84
2023/08/07 02:10:56;;;;;;;;;2.00;2.00;;;;;;;;5029954;28;8872;-87
2023/08/07 02:13:24;;;;;;;;;2.00;2.00;;;;;;;;5029222;28;8860;-85
2023/08/07 02:15:52;;;;;;;;;3.00;2.00;;;;;;;;5029329;28;8856;-83
2023/08/07 02:18:19;;;;;;;;;1.75;1.75;;;;;;;;5029281;28;8871;-85
2023/08/07 02:20:47;;;;;;;;;2.50;1.00;;;;;;;;5030050;28;8853;-87
2023/08/07 02:23:14;;;;;;;;;1.00;1.00;;;;;;;;5029248;28;9609;-86
2023/08/07 02:25:41;;;;;;;;;1.25;1.25;;;;;;;;5029744;28;8869;-86
2023/08/07 02:28:08;;;;;;;;;2.75;1.50;;;;;;;;5029240;28;8955;-84
2023/08/07 02:30:37;;;;;;;;;2.25;2.00;;;;;;;;5033589;28;8817;-85
2023/08/07 02:33:04;;;;;;;;;1.50;1.50;;;;;;;;5050129;28;8862;-85
2023/08/07 02:35:31;;;;;;;;;2.00;2.00;;;;;;;;5049126;28;8855;-87
2023/08/07 02:37:59;;;;;;;;;2.00;2.00;;;;;;;;5049165;28;8871;-84
2023/08/07 02:40:26;;;;;;;;;2.25;2.25;;;;;;;;5049907;28;8955;-86
2023/08/07 02:42:53;;;;;;;;;3.75;2.00;;;;;;;;5050100;28;8881;-87
2023/08/07 02:45:20;;;;;;;;;3.00;3.00;;;;;;;;5050327;28;8850;-87
2023/08/07 02:47:49;;;;;;;;;2.00;2.00;;;;;;;;5049894;28;8971;-87
2023/08/07 02:50:16;;;;;;;;;1.75;1.75;;;;;;;;5050360;28;9735;-86
2023/08/07 02:52:43;;;;;;;;;3.00;3.00;;;;;;;;5049806;28;8888;-85
2023/08/07 02:55:11;;;;;;;;;3.75;2.00;;;;;;;;5049828;28;8996;-83
2023/08/07 02:57:38;;;;;;;;;3.00;3.00;;;;;;;;5050120;28;8968;-87
2023/08/07 03:00:07;;;;;;;;;1.75;0.00;;;;;;;;5051121;28;8858;-88
2023/08/07 03:02:34;;;;;;;;;2.00;2.00;;;;;;;;5052484;28;8807;-87
2023/08/07 03:05:03;;;;;;;;;4.75;3.00;;;;;;;;5052653;28;8901;-87
2023/08/07 03:07:30;;;;;;;;;2.75;2.00;;;;;;;;5062791;28;8961;-86
2023/08/07 03:09:57;;;;;;;;;3.00;3.00;;;;;;;;5078917;28;8887;-85
2023/08/07 03:12:25;;;;;;;;;4.00;2.50;;;;;;;;5066335;28;8848;-86
2023/08/07 03:14:52;;;;;;;;;2.75;2.00;;;;;;;;5050412;28;8860;-85
2023/08/07 03:17:20;;;;;;;;;4.75;2.50;;;;;;;;5050911;28;9007;-84
2023/08/07 03:19:49;;;;;;;;;2.25;1.00;;;;;;;;5060835;28;8862;-87
2023/08/07 03:22:17;;;;;;;;;2.75;2.75;;;;;;;;5049090;28;8835;-86
2023/08/07 03:24:48;;;;;;;;;4.00;3.00;;;;;;;;5049480;28;8851;-88
2023/08/07 03:27:15;;;;;;;;;1.00;1.00;;;;;;;;5048336;28;8985;-84
2023/08/07 03:29:43;;;;;;;;;3.25;3.00;;;;;;;;5049004;28;8832;-86
2023/08/07 03:32:12;;;;;;;;;2.00;2.00;;;;;;;;5037015;28;8843;-86
2023/08/07 03:34:39;;;;;;;;;4.25;2.25;;;;;;;;5040442;28;8919;-84
2023/08/07 03:37:06;;;;;;;;;3.00;1.50;;;;;;;;5046599;28;8869;-84
2023/08/07 03:39:35;;;;;;;;;2.25;2.25;;;;;;;;5048940;28;8862;-86
2023/08/07 03:42:02;;;;;;;;;3.25;3.00;;;;;;;;5048086;28;8882;-82
2023/08/07 03:44:29;;;;;;;;;3.00;3.00;;;;;;;;5048812;28;8859;-82
2023/08/07 03:46:57;;;;;;;;;3.00;3.00;;;;;;;;5048681;28;8856;-83
2023/08/07 03:49:24;;;;;;;;;1.25;1.25;;;;;;;;5048617;28;8847;-82
2023/08/07 03:51:52;;;;;;;;;3.75;3.00;;;;;;;;5051696;28;8871;-81
2023/08/07 03:54:19;;;;;;;;;3.50;3.25;;;;;;;;5051708;28;8870;-87
2023/08/07 03:56:49;;;;;;;;;2.00;2.00;;;;;;;;5066214;28;8848;-87
2023/08/07 03:59:17;;;;;;;;;2.75;2.75;;;;;;;;5059392;28;8850;-85
2023/08/07 04:01:44;;;;;;;;;3.00;3.00;;;;;;;;5051076;28;8798;-84
2023/08/07 04:04:11;;;;;;;;;1.75;1.75;;;;;;;;5051760;28;8842;-82
2023/08/07 04:06:39;;;;;;;;;3.00;3.00;;;;;;;;5061653;28;8842;-82
2023/08/07 04:09:07;;;;;;;;;5.75;2.75;;;;;;;;5052099;28;8859;-83
2023/08/07 04:11:34;;;;;;;;;4.00;4.00;;;;;;;;5039600;28;8969;-81
2023/08/07 04:14:06;;;;;;;;;5.67;3.33;;;;;;;;5050396;28;9061;-82
2023/08/07 04:16:33;;;;;;;;;2.00;2.00;;;;;;;;5051543;28;8944;-86
2023/08/07 04:19:00;;;;;;;;;5.50;4.00;;;;;;;;5051143;28;8858;-80
2023/08/07 04:21:27;;;;;;;;;3.00;3.00;;;;;;;;5051655;28;8859;-80
2023/08/07 04:23:54;;;;;;;;;3.50;3.50;;;;;;;;5051172;28;8946;-81
2023/08/07 04:26:22;;;;;;;;;3.00;3.00;;;;;;;;5050956;28;8858;-81
2023/08/07 04:28:49;;;;;;;;;1.50;1.50;;;;;;;;5050087;28;8845;-81
2023/08/07 04:31:17;;;;;;;;;2.00;2.00;;;;;;;;5049856;28;8803;-84
2023/08/07 04:33:45;;;;;;;;;6.25;2.75;;;;;;;;5038784;28;8830;-80
2023/08/07 04:36:12;;;;;;;;;3.25;1.75;;;;;;;;5051222;28;8866;-81
2023/08/07 04:38:39;;;;;;;;;3.25;3.00;;;;;;;;5052980;28;8839;-81
2023/08/07 04:41:06;;;;;;;;;6.00;3.00;;;;;;;;5052082;28;8978;-82
2023/08/07 04:43:33;;;;;;;;;3.75;2.50;;;;;;;;5053942;28;9067;-81
2023/08/07 04:46:01;;;;;;;;;2.75;2.75;;;;;;;;5053300;28;8946;-81
2023/08/07 04:48:31;;;;;;;;;4.25;2.50;;;;;;;;5054581;28;8857;-82
2023/08/07 04:50:59;;;;;;;;;3.75;2.00;;;;;;;;5052766;28;8851;-81
2023/08/07 04:53:26;;;;;;;;;2.00;1.00;;;;;;;;5053849;28;8858;-84
2023/08/07 04:55:53;;;;;;;;;5.00;3.00;;;;;;;;5047735;28;8841;-81
2023/08/07 04:58:20;;;;;;;;;3.75;2.00;;;;;;;;5062873;28;8880;-82
2023/08/07 05:00:48;;;;;;;;;4.75;3.00;;;;;;;;5068354;28;8780;-79
2023/08/07 05:03:18;;;;;;;;;2.00;2.00;;;;;;;;5051544;28;9528;-77
2023/08/07 05:05:46;;;;;;;;;3.00;3.00;;;;;;;;5049912;28;8869;-75
2023/08/07 05:08:14;;;;;;;;;4.50;3.00;;;;;;;;5047004;28;8851;-85
2023/08/07 05:10:41;;;;;;;;;3.50;3.25;;;;;;;;5050865;28;8870;-80
2023/08/07 05:13:08;;;;;;;;;3.50;2.50;;;;;;;;5050901;28;8866;-84
2023/08/07 05:15:36;;;;;;;;;2.75;2.00;;;;;;;;5050006;28;9414;-82
2023/08/07 05:18:03;;;;;;;;;4.75;2.25;;;;;;;;5048990;28;8885;-78
2023/08/07 05:20:30;;;;;;;;;3.00;3.00;;;;;;;;5051916;28;8867;-83
2023/08/07 05:22:59;;;;;;;;;5.25;3.50;;;;;;;;5038897;28;8897;-77
2023/08/07 05:25:26;;;;;;;;;1.25;1.25;;;;;;;;5051760;28;9651;-84
2023/08/07 05:27:53;;;;;;;;;2.33;2.33;;;;;;;;5044360;28;8848;-81
2023/08/07 05:30:21;;;;;;;;;3.50;3.25;;;;;;;;5047303;28;8989;-82
2023/08/07 05:32:48;;;;;;;;;3.75;2.25;;;;;;;;5051053;28;8863;-85
2023/08/07 05:35:15;;;;;;;;;3.75;2.50;;;;;;;;5051429;28;8965;-81
2023/08/07 05:37:42;;;;;;;;;4.00;4.00;;;;;;;;5050893;28;8863;-78
2023/08/07 05:40:12;;;;;;;;;2.50;2.50;;;;;;;;5048385;28;8987;-79
2023/08/07 05:42:42;;;;;;;;;4.25;3.00;;;;;;;;5049606;28;8855;-81
2023/08/07 05:45:11;;;;;;;;;3.00;3.00;;;;;;;;5049633;28;8862;-78
2023/08/07 05:47:38;;;;;;;;;3.75;3.75;;;;;;;;5050827;28;8866;-82
2023/08/07 05:50:06;;;;;;;;;6.00;3.50;;;;;;;;5063006;28;8977;-83
2023/08/07 05:52:33;;;;;;;;;4.00;4.00;;;;;;;;5074393;28;8891;-83
2023/08/07 05:55:00;;;;;;;;;5.50;3.75;;;;;;;;5069078;28;8851;-80
2023/08/07 05:57:29;;;;;;;;;3.00;3.00;;;;;;;;5052060;28;8838;-82
2023/08/07 05:59:56;;;;;;;;;7.00;4.50;;;;;;;;5053004;28;8874;-81
2023/08/07 06:02:24;;;;;;;;;3.00;3.00;;;;;;;;5049045;28;8819;-82
2023/08/07 06:04:51;;;;;;;;;4.00;4.00;;;;;;;;5050032;28;8850;-84
2023/08/07 06:07:18;;;;;;;;;4.00;2.50;;;;;;;;5048791;28;8854;-83
2023/08/07 06:09:45;;;;;;;;;7.75;5.75;;;;;;;;5049044;28;8864;-81
2023/08/07 06:12:13;;;;;;;;;4.50;4.50;;;;;;;;5049138;28;8874;-81
2023/08/07 06:14:41;;;;;;;;;5.75;4.00;;;;;;;;5049663;28;8839;-85
2023/08/07 06:17:10;;;;;;;;;4.75;4.75;;;;;;;;5042214;28;8850;-83
2023/08/07 06:19:37;;;;;;;;;9.00;6.00;;;;;;;;5058904;28;8869;-85
2023/08/07 06:22:05;;;;;;;;;4.25;4.25;;;;;;;;5042165;28;8870;-85
2023/08/07 06:24:32;;;;;;;;;7.50;5.50;;;;;;;;5051636;28;8863;-86
2023/08/07 06:26:59;;;;;;;;;7.25;7.25;;;;;;;;5047177;28;8959;-86
2023/08/07 06:29:27;;;;;;;;;8.50;7.75;;;;;;;;5052289;28;8868;-86
2023/08/07 06:31:55;;;;;;;;;10.75;9.25;;;;;;;;5054735;28;8811;-87
2023/08/07 06:34:22;;;;;;;;;10.25;8.25;;;;;;;;5063353;28;8887;-82
2023/08/07 06:36:50;;;;;;;;;10.00;8.00;;;;;;;;5061257;28;8844;-83
2023/08/07 06:39:17;;;;;;;;;7.00;7.00;;;;;;;;5061312;28;8848;-77
2023/08/07 06:41:44;;;;;;;;;11.00;9.00;;;;;;;;5049972;28;8872;-80
2023/08/07 06:44:11;;;;;;;;;11.75;8.75;;;;;;;;5054570;28;8816;-80
2023/08/07 06:46:39;;;;;;;;;8.25;8.25;;;;;;;;5049880;28;8874;-81
2023/08/07 06:49:07;;;;;;;;;9.50;9.50;;;;;;;;5053571;28;8851;-81
2023/08/07 06:51:34;;;;;;;;;11.75;9.75;;;;;;;;5059196;28;8864;-81
2023/08/07 06:54:02;;;;;;;;;9.00;9.00;;;;;;;;5062352;28;8852;-81
2023/08/07 06:56:29;;;;;;;;;12.00;10.00;;;;;;;;5059654;28;8845;-81
2023/08/07 06:58:56;;;;;;;;;10.00;8.25;;;;;;;;5062125;28;8840;-81
2023/08/07 07:01:23;;;;;;;;;9.00;9.00;;;;;;;;5059083;28;8793;-81
2023/08/07 07:03:52;;;;;;;;;9.25;7.00;;;;;;;;5053735;28;8865;-81
2023/08/07 07:06:23;;;;;;;;;7.50;7.50;;;;;;;;5047820;28;8863;-81
2023/08/07 07:08:50;;;;;;;;;5.00;3.00;;;;;;;;5047697;28;8843;-81
2023/08/07 07:11:17;;;;;;;;;8.50;8.50;;;;;;;;5046934;28;8883;-81
2023/08/07 07:13:44;;;;;;;;;10.00;8.25;;;;;;;;5047876;28;8887;-81
2023/08/07 07:16:13;;;;;;;;;8.25;8.25;;;;;;;;5047453;28;8878;-82
2023/08/07 07:18:40;;;;;;;;;10.75;9.00;;;;;;;;5048292;28;8862;-81
2023/08/07 07:21:07;;;;;;;;;7.50;7.50;;;;;;;;5047504;28;9646;-81
2023/08/07 07:23:36;;;;;;;;;9.00;9.00;;;;;;;;5049399;28;8945;-82
2023/08/07 07:26:03;;;;;;;;;7.00;7.00;;;;;;;;5058124;28;8966;-81
2023/08/07 07:28:30;;;;;;;;;7.75;5.75;;;;;;;;5058587;28;8862;-80
2023/08/07 07:30:58;;;;;;;;;6.25;6.25;;;;;;;;5052146;28;8799;-80
2023/08/07 07:33:25;;;;;;;;;7.25;7.25;;;;;;;;5052005;28;8895;-80
2023/08/07 07:35:52;;;;;;;;;9.50;7.25;;;;;;;;5054992;28;8963;-78
2023/08/07 07:38:20;;;;;;;;;9.00;6.00;;;;;;;;5053180;28;9658;-79
2023/08/07 07:40:48;;;;;;;;;11.00;7.75;;;;;;;;5052343;28;8969;-81
2023/08/07 07:43:15;;;;;;;;;6.00;6.00;;;;;;;;5052547;28;9707;-81
2023/08/07 07:45:43;;;;;;;;;6.25;6.25;;;;;;;;5052764;28;8870;-83
2023/08/07 07:48:10;;;;;;;;;2.00;2.00;;;;;;;;5052331;28;8851;-81
2023/08/07 07:50:37;;;;;;;;;6.50;5.25;;;;;;;;5052299;28;8870;-81
2023/08/07 07:53:04;;;;;;;;;5.00;5.00;;;;;;;;5052183;28;9315;-81
2023/08/07 07:55:32;;;;;;;;;6.50;5.00;;;;;;;;5052828;28;8943;-87
2023/08/07 07:58:00;;;;;;;;;3.50;3.50;;;;;;;;5052495;28;9652;-86
2023/08/07 08:00:28;;;;;;;;;4.50;4.50;;;;;;;;5049787;28;8746;-86
2023/08/07 08:02:55;;;;;;;;;4.00;4.00;;;;;;;;5032834;28;8875;-84
2023/08/07 08:05:22;;;;;;;;;6.25;6.00;;;;;;;;5033588;28;8896;-85
2023/08/07 08:07:49;;;;;;;;;3.25;3.25;;;;;;;;5034993;28;8831;-85
2023/08/07 08:10:16;;;;;;;;;3.75;3.75;;;;;;;;5037027;28;8850;-85
2023/08/07 08:12:44;;;;;;;;;5.50;2.75;;;;;;;;5038612;28;8866;-84
2023/08/07 08:15:13;;;;;;;;;3.75;3.75;;;;;;;;5044822;28;8878;-84
2023/08/07 08:17:40;;;;;;;;;3.00;3.00;;;;;;;;5037432;28;8846;-85
2023/08/07 08:20:11;;;;;;;;;3.25;2.75;;;;;;;;5037540;28;8844;-84
2023/08/07 08:22:38;;;;;;;;;2.25;2.25;;;;;;;;5039765;28;8863;-85
2023/08/07 08:25:06;;;;;;;;;2.75;1.75;;;;;;;;5037336;28;8873;-85
2023/08/07 08:27:33;;;;;;;;;2.75;1.25;;;;;;;;5037702;28;8888;-85
2023/08/07 08:30:01;;;;;;;;;0.75;0.75;;;;;;;;5056525;28;8825;-80
2023/08/07 08:32:29;;;;;;;;;1.25;1.25;;;;;;;;5060494;28;8815;-81
2023/08/07 08:34:56;;;;;;;;;1.75;1.75;;;;;;;;5041383;28;8953;-81
2023/08/07 08:37:24;;;;;;;;;1.25;1.25;;;;;;;;5037027;28;8862;-77
2023/08/07 08:39:51;;;;;;;;;1.40;1.40;;;;;;;;5036683;28;8864;-81
2023/08/07 08:42:18;;;;;;;;;2.00;2.00;;;;;;;;5037999;28;8842;-85
2023/08/07 08:44:49;;;;;;;;;2.60;2.60;;;;;;;;5040106;28;8863;-78
2023/08/07 08:47:18;;;;;;;;;2.00;2.00;;;;;;;;5030547;28;8846;-85
2023/08/07 08:49:48;;;;;;;;;1.80;1.80;;;;;;;;5030234;28;8866;-72
2023/08/07 08:52:15;;;;;;;;;2.80;1.20;;;;;;;;5030182;28;8896;-76
2023/08/07 08:54:43;;;;;;;;;1.00;1.00;;;;;;;;5030769;28;8842;-79
2023/08/07 08:57:12;;;;;;;;;1.20;1.20;;;;;;;;5030183;28;8862;-81
2023/08/07 08:59:40;;;;;;;;;1.00;1.00;;;;;;;;5026077;28;8866;-79
2023/08/07 09:02:10;;;;;;;;;0.00;0.00;;;;;;;;5038178;28;8791;-79
2023/08/07 09:04:37;;;;;;;;;3.20;1.40;;;;;;;;5026426;28;8922;-77
2023/08/07 09:07:06;;;;;;;;;2.80;2.80;;;;;;;;5039362;28;8842;-78
2023/08/07 09:09:33;;;;;;;;;1.00;1.00;;;;;;;;5034891;28;8855;-77
2023/08/07 09:12:02;;;;;;;;;0.80;0.80;;;;;;;;5038156;28;8871;-75
2023/08/07 09:14:33;;;;;;;;;1.00;1.00;;;;;;;;5029656;28;9659;-76
2023/08/07 09:17:00;;;;;;;;;3.40;1.80;;;;;;;;5041247;28;8851;-74
2023/08/07 09:19:28;;;;;;;;;3.80;2.60;;;;;;;;5046868;28;9724;-77
2023/08/07 09:21:55;;;;;;;;;0.00;0.00;;;;;;;;5048445;28;8978;-76
2023/08/07 09:24:23;;;;;;;;;1.00;1.00;;;;;;;;5034611;28;8865;-76
2023/08/07 09:26:53;;;;;;;;;1.00;1.00;;;;;;;;5048950;28;8846;-77
2023/08/07 09:29:21;;;;;;;;;2.80;0.80;;;;;;;;5016549;28;9659;-76
2023/08/07 09:31:48;;;;;;;;;1.40;1.40;;;;;;;;5041214;28;8799;-79
2023/08/07 09:34:17;;;;;;;;;1.00;1.00;;;;;;;;5048078;28;8854;-76
2023/08/07 09:36:45;;;;;;;;;1.00;1.00;;;;;;;;5033963;28;8857;-77
2023/08/07 09:39:14;;;;;;;;;1.60;1.60;;;;;;;;5037184;28;8850;-78
2023/08/07 09:41:43;;;;;;;;;1.40;1.40;;;;;;;;5047207;28;8889;-77
2023/08/07 09:44:12;;;;;;;;;0.40;0.40;;;;;;;;5048563;28;8854;-77
2023/08/07 09:46:43;;;;;;;;;1.00;1.00;;;;;;;;5044932;28;8852;-77
2023/08/07 09:49:10;;;;;;;;;0.60;0.60;;;;;;;;5031047;28;8895;-77
2023/08/07 09:51:44;;;;;;;;;0.20;0.20;;;;;;;;5043205;28;8910;-77
2023/08/07 09:54:11;;;;;;;;;0.00;0.00;;;;;;;;5040589;28;8867;-76
2023/08/07 09:56:39;;;;;;;;;0.00;0.00;;;;;;;;5032113;28;8977;-77
2023/08/07 09:59:08;;;;;;;;;2.00;1.00;;;;;;;;5028486;28;8856;-77
2023/08/07 10:01:38;;;;;;;;;1.00;1.00;;;;;;;;5030016;28;9629;-76
2023/08/07 10:04:07;;;;;;;;;0.80;0.80;;;;;;;;5028866;28;8923;-77
2023/08/07 10:06:35;;;;;;;;;0.80;0.80;;;;;;;;5027973;28;8865;-76
2023/08/07 10:09:03;;;;;;;;;0.20;0.20;;;;;;;;5014420;28;8840;-75
2023/08/07 10:11:30;;;;;;;;;0.80;0.80;;;;;;;;5008379;28;8848;-77
2023/08/07 10:14:03;;;;;;;;;0.00;0.00;;;;;;;;5008915;28;8880;-76
2023/08/07 10:16:32;;;;;;;;;0.00;0.00;;;;;;;;5008719;28;8847;-75
2023/08/07 10:18:59;;;;;;;;;1.60;0.00;;;;;;;;5008078;28;8837;-76
2023/08/07 10:21:26;;;;;;;;;0.00;0.00;;;;;;;;5009893;28;8887;-75
2023/08/07 10:23:55;;;;;;;;;0.00;0.00;;;;;;;;5010758;28;8848;-80
2023/08/07 10:26:23;;;;;;;;;0.60;0.60;;;;;;;;5013369;28;8879;-80
2023/08/07 10:28:52;;;;;;;;;0.00;0.00;;;;;;;;5015174;28;8902;-80
2023/08/07 10:31:20;;;;;;;;;0.00;0.00;;;;;;;;5009771;28;8809;-80
2023/08/07 10:33:50;;;;;;;;;0.00;0.00;;;;;;;;5010395;28;9673;-78
2023/08/07 10:36:19;;;;;;;;;2.00;0.00;;;;;;;;5010614;28;8882;-84
2023/08/07 10:38:46;;;;;;;;;0.00;0.00;;;;;;;;5011769;28;8852;-77
2023/08/07 10:41:14;;;;;;;;;0.60;0.60;;;;;;;;5010148;28;8951;-81
2023/08/07 10:43:41;;;;;;;;;1.00;0.60;;;;;;;;5016249;28;8948;-82
2023/08/07 10:46:11;;;;;;;;;0.00;0.00;;;;;;;;5010786;28;8880;-80
2023/08/07 10:48:43;;;;;;;;;0.00;0.00;;;;;;;;5016162;28;8903;-81
2023/08/07 10:51:15;;;;;;;;;0.00;0.00;;;;;;;;5009914;28;9011;-79
2023/08/07 10:53:45;;;;;;;;;0.00;0.00;;;;;;;;5010735;28;8841;-80
2023/08/07 10:56:19;;;;;;;;;0.00;0.00;;;;;;;;5012255;28;8945;-80
2023/08/07 10:58:52;;;;;;;;;0.00;0.00;;;;;;;;5009940;28;8978;-80
2023/08/07 11:01:41;;;;;;;;;0.00;0.00;;;;;;;;5009587;28;8799;-77
2023/08/07 11:04:09;;;;;;;;;0.00;0.00;;;;;;;;5008813;28;8946;-78
2023/08/07 11:06:39;;;;;;;;;0.00;0.00;;;;;;;;5007817;28;8840;-79
2023/08/07 11:09:09;;;;;;;;;0.20;0.20;;;;;;;;5027308;28;8838;-79
2023/08/07 11:11:39;;;;;;;;;0.60;0.60;;;;;;;;5017290;28;8865;-78
2023/08/07 11:14:07;;;;;;;;;0.00;0.00;;;;;;;;5029050;28;8845;-80
2023/08/07 11:16:35;;;;;;;;;0.80;0.80;;;;;;;;5028901;28;8868;-79
2023/08/07 11:19:02;;;;;;;;;0.20;0.20;;;;;;;;5029390;28;8996;-80
2023/08/07 11:21:30;;;;;;;;;0.00;0.00;;;;;;;;5028997;28;8931;-80
2023/08/07 11:23:59;;;;;;;;;0.00;0.00;;;;;;;;5028819;28;8878;-78
2023/08/07 11:26:27;;;;;;;;;0.80;0.00;;;;;;;;5030731;28;8888;-78
2023/08/07 11:28:55;;;;;;;;;0.00;0.00;;;;;;;;5032530;28;8836;-85
2023/08/07 11:31:24;;;;;;;;;0.00;0.00;;;;;;;;5040508;28;8794;-80
2023/08/07 11:33:52;;;;;;;;;0.00;0.00;;;;;;;;5050872;28;8849;-81
2023/08/07 11:36:19;;;;;;;;;0.00;0.00;;;;;;;;5051908;28;8903;-80
2023/08/07 11:38:46;;;;;;;;;0.00;0.00;;;;;;;;5056118;28;8995;-81
2023/08/07 11:41:17;;;;;;;;;0.20;0.20;;;;;;;;5065114;28;9017;-81
2023/08/07 11:43:44;;;;;;;;;1.80;0.20;;;;;;;;5049588;28;8846;-82
2023/08/07 11:46:12;;;;;;;;;0.00;0.00;;;;;;;;5047349;28;8872;-81
2023/08/07 11:48:41;;;;;;;;;0.60;0.40;;;;;;;;5047102;28;8992;-81
2023/08/07 11:51:08;;;;;;;;;1.60;0.40;;;;;;;;5047652;28;8828;-81
2023/08/07 11:53:37;;;;;;;;;0.60;0.60;;;;;;;;5047006;28;8968;-81
2023/08/07 11:56:06;;;;;;;;;0.80;0.80;;;;;;;;5060020;28;8977;-81
2023/08/07 11:58:37;;;;;;;;;0.00;0.00;;;;;;;;5040883;28;8995;-74
2023/08/07 12:01:10;;;;;;;;;0.80;0.80;;;;;;;;5059188;28;8801;-78
2023/08/07 12:03:39;;;;;;;;;0.80;0.80;;;;;;;;5053080;28;8853;-75
2023/08/07 12:06:08;;;;;;;;;0.80;0.80;;;;;;;;5046673;28;8857;-76
2023/08/07 12:08:37;;;;;;;;;0.80;0.80;;;;;;;;5047105;28;8865;-75
2023/08/07 12:11:05;;;;;;;;;0.00;0.00;;;;;;;;5051524;28;8873;-75
2023/08/07 12:13:34;;;;;;;;;1.20;0.60;;;;;;;;5069631;28;8827;-76
2023/08/07 12:16:04;;;;;;;;;0.60;0.60;;;;;;;;5068055;28;8978;-80
2023/08/07 12:18:32;;;;;;;;;0.00;0.00;;;;;;;;5069948;28;8838;-80
2023/08/07 12:21:00;;;;;;;;;0.00;0.00;;;;;;;;5068138;28;8877;-80
2023/08/07 12:23:27;;;;;;;;;1.00;1.00;;;;;;;;5058224;28;8857;-80
2023/08/07 12:25:55;;;;;;;;;0.80;0.80;;;;;;;;5051012;28;8892;-80
2023/08/07 12:28:22;;;;;;;;;1.00;0.00;;;;;;;;5050544;28;9644;-80
2023/08/07 12:30:51;;;;;;;;;0.00;0.00;;;;;;;;5050028;28;8801;-80
2023/08/07 12:33:19;;;;;;;;;0.00;0.00;;;;;;;;5051298;28;8869;-79
2023/08/07 12:35:47;;;;;;;;;0.00;0.00;;;;;;;;5039174;28;8860;-80
2023/08/07 12:38:14;;;;;;;;;0.00;0.00;;;;;;;;5050567;28;8972;-80
2023/08/07 12:40:45;;;;;;;;;0.00;0.00;;;;;;;;5050735;28;8869;-80
2023/08/07 12:43:12;;;;;;;;;0.20;0.20;;;;;;;;5050212;28;8873;-80
2023/08/07 12:45:39;;;;;;;;;0.00;0.00;;;;;;;;5050525;28;8850;-80
2023/08/07 12:48:07;;;;;;;;;1.60;0.80;;;;;;;;5049709;28;8887;-80
2023/08/07 12:50:36;;;;;;;;;0.00;0.00;;;;;;;;5050018;28;9702;-80
2023/08/07 12:53:03;;;;;;;;;0.00;0.00;;;;;;;;5052169;28;8994;-79
2023/08/07 12:55:31;;;;;;;;;1.00;0.00;;;;;;;;5069755;28;8858;-80
2023/08/07 12:57:58;;;;;;;;;0.20;0.20;;;;;;;;5067816;28;8855;-79
2023/08/07 13:00:26;;;;;;;;;0.80;0.80;;;;;;;;5068883;28;8871;-80
2023/08/07 13:02:54;;;;;;;;;0.00;0.00;;;;;;;;5066212;28;8859;-79
2023/08/07 13:05:23;;;;;;;;;0.00;0.00;;;;;;;;5051053;28;8857;-81
2023/08/07 13:07:53;;;;;;;;;0.60;0.00;;;;;;;;5051671;28;8856;-81
2023/08/07 13:10:21;;;;;;;;;0.20;0.20;;;;;;;;5051331;28;8893;-80
2023/08/07 13:12:50;;;;;;;;;0.20;0.20;;;;;;;;5053191;28;8863;-80
2023/08/07 13:15:18;;;;;;;;;0.00;0.00;;;;;;;;5067509;28;8925;-80
2023/08/07 13:17:46;;;;;;;;;0.00;0.00;;;;;;;;5069097;28;8842;-80
2023/08/07 13:20:15;;;;;;;;;0.00;0.00;;;;;;;;5062589;28;8867;-79
2023/08/07 13:22:43;;;;;;;;;0.00;0.00;;;;;;;;5063213;28;8861;-80
2023/08/07 13:25:13;;;;;;;;;0.80;0.00;;;;;;;;5049409;28;8850;-81
2023/08/07 13:27:40;;;;;;;;;0.00;0.00;;;;;;;;5049598;28;8853;-80
2023/08/07 13:30:09;;;;;;;;;0.00;0.00;;;;;;;;5049154;28;8869;-80
2023/08/07 13:32:37;;;;;;;;;0.00;0.00;;;;;;;;5049878;28;8884;-81
2023/08/07 13:35:05;;;;;;;;;0.00;0.00;;;;;;;;5049219;28;8865;-80
2023/08/07 13:37:33;;;;;;;;;0.00;0.00;;;;;;;;5048801;28;8888;-80
2023/08/07 13:40:00;;;;;;;;;0.00;0.00;;;;;;;;5048833;28;8895;-80
2023/08/07 13:42:29;;;;;;;;;0.00;0.00;;;;;;;;5050195;28;8859;-80
2023/08/07 13:44:56;;;;;;;;;0.00;0.00;;;;;;;;5050377;28;8872;-80
2023/08/07 13:47:25;;;;;;;;;0.00;0.00;;;;;;;;5049531;28;8849;-81
2023/08/07 13:49:53;;;;;;;;;0.00;0.00;;;;;;;;5050381;28;8868;-80
2023/08/07 13:52:20;;;;;;;;;0.20;0.20;;;;;;;;5049306;28;8882;-78
2023/08/07 13:54:48;;;;;;;;;0.00;0.00;;;;;;;;5049960;28;8955;-81
2023/08/07 13:57:15;;;;;;;;;0.00;0.00;;;;;;;;5049319;28;8846;-79
2023/08/07 13:59:43;;;;;;;;;1.80;0.00;;;;;;;;5049903;28;8883;-79
2023/08/07 14:02:11;;;;;;;;;0.00;0.00;;;;;;;;5057876;28;8834;-79
2023/08/07 14:04:38;;;;;;;;;0.20;0.20;;;;;;;;5048529;28;8862;-79
2023/08/07 14:07:06;;;;;;;;;0.00;0.00;;;;;;;;5052181;28;8940;-78
2023/08/07 14:09:33;;;;;;;;;0.00;0.00;;;;;;;;5066190;28;8871;-79
2023/08/07 14:12:00;;;;;;;;;0.00;0.00;;;;;;;;5058110;28;9001;-79
2023/08/07 14:14:27;;;;;;;;;0.00;0.00;;;;;;;;5049425;28;8838;-80
2023/08/07 14:17:00;;;;;;;;;0.00;0.00;;;;;;;;5048902;28;8969;-79
2023/08/07 14:19:27;;;;;;;;;0.00;0.00;;;;;;;;5050097;28;8847;-78
2023/08/07 14:21:55;;;;;;;;;0.00;0.00;;;;;;;;5048452;28;8847;-77
2023/08/07 14:24:22;;;;;;;;;0.00;0.00;;;;;;;;5048843;28;8858;-77
2023/08/07 14:26:49;;;;;;;;;0.20;0.20;;;;;;;;5049886;28;8884;-78
2023/08/07 14:29:16;;;;;;;;;0.00;0.00;;;;;;;;5048678;28;8869;-77
2023/08/07 14:31:43;;;;;;;;;0.00;0.00;;;;;;;;5051946;28;8819;-77
2023/08/07 14:34:12;;;;;;;;;0.00;0.00;;;;;;;;5050176;28;8873;-78
2023/08/07 14:36:40;;;;;;;;;0.00;0.00;;;;;;;;5052473;28;8851;-78
2023/08/07 14:39:07;;;;;;;;;0.00;0.00;;;;;;;;5040133;28;8908;-77
2023/08/07 14:41:35;;;;;;;;;0.00;0.00;;;;;;;;5048006;28;8855;-77
2023/08/07 14:44:02;;;;;;;;;0.00;0.00;;;;;;;;5048376;28;8977;-75
2023/08/07 14:46:29;;;;;;;;;11.00;11.00;;;;;;;;5053987;28;8845;-77
2023/08/07 14:48:56;;;;;;;;;0.00;0.00;;;;;;;;5050022;28;8859;-78
2023/08/07 14:51:25;;;;;;;;;0.00;0.00;;;;;;;;5057380;28;9647;-80
2023/08/07 14:53:52;;;;;;;;;0.00;0.00;;;;;;;;5054408;28;8880;-79
2023/08/07 14:56:19;;;;;;;;;0.00;0.00;;;;;;;;5051949;28;8878;-78
2023/08/07 14:58:46;;;;;;;;;0.20;0.20;;;;;;;;5052536;28;8858;-82
2023/08/07 15:01:13;;;;;;;;;0.00;0.00;;;;;;;;5063570;28;8812;-76